Accueil
METAR-TAF:

METAR-TAF

Aéroports :

Matagami, Québec, Canada

latitude: 49-46N, longitude: 077-49W, altitude: 281 m

Observation

Le bulletin a été fait il y a 11 minutes, à 02:34 UTC
Vent 3 kt de nord/nord-ouest
Température -13°C
Humidité 78%
Pression 1024 hPa
Visibilité: 14.5 km
Ciel couvert à une hauteur de 2300 ft
neige faible

METAR: CYNM 120234Z AUTO 33003KT 9SM -SN OVC023 M13/M16 A3024 RMK SLP270

Heure: 21:45 (02:45 UTC)


TAF: absent

Observations et prévisions météorologiques de plus de 4000 aéroports (messages METAR et TAF).

Les stations disponibles sont représentées par des disques jaunes et rouges sur la carte.

Passer la souris dessus pour voir le nom de la station.

Cliquer dessus pour voir les observations et prévisions météorologiques.

Pour changer de carte: cliquez sur les boutons verts avec une croix noire pour zoomer, sur le bouton vert avec un tiret pour effectuer un zoom arrière, ou sur les flèches vertes pour les cartes adjacentes.


METAR-TAF: